Main page
METAR-TAF:

METAR-TAF

Airports :

Turkmenbashi International Airport

Türkmenbaşy, Turkmenistan

latitude: 40-03-48N, longitude: 053-00-26E, elevation: 86 m

Current weather observation

The report was made 42 minutes ago, at 19:00 UTC
Wind 12 kt from the Northeast
Temperature 23°C
Humidity 22%
Pressure 1018 hPa
Visibility 10 km or more
no clouds below 1500 m and no cumulonimbus

METAR: UTAK 221900Z 04012KT CAVOK 23/00 Q1018 NOSIG

Time: 00:42 (19:42 UTC)

Forecast

The report was made 3 hours and 12 minutes ago, at 16:30 UTC
Forecast valid from 22 at 18 UTC to 23 at 18 UTC
Wind 18 kt from the Northeast
Visibility 10 km or more
no clouds below 1500 m and no cumulonimbus
Temporary
from 22 at 18 UTC to 22 at 21 UTC
Wind 18 kt from the North/Northwest
Temporary
from 23 at 03 UTC to 23 at 12 UTC
Wind 16 kt from the East/Southeast
Scattered clouds at a height of 3300 ft
Scattered clouds at a height of 10000 ft

TAF: UTAK 221630Z 2218/2318 04018KT CAVOK 530009 TEMPO 2218/2221 34018KT TEMPO 2303/2312 12016KT SCT033 SCT100

Weather observations and forecasts of more than 4000 airports (METAR and TAF reports).

The available stations are represented by yellow and red dots on the map.

Hover mouse over dot to see the name of the station.

Then click to see weather observations and forecasts.

To change the map : click on the green buttons with a black cross to zoom in, on the green button with a dash to zoom out, or on the green arrows for adjacent maps.


METAR-TAF: